sensor_id;sensor_type;location;lat;lon;timestamp;P1;durP1;ratioP1;P2;durP2;ratioP2
51489;SDS011;57752;53.574;9.736;2023-05-10T00:00:43;13.20;;;4.18;;
51489;SDS011;57752;53.574;9.736;2023-05-10T00:05:43;13.98;;;4.20;;
51489;SDS011;57752;53.574;9.736;2023-05-10T00:10:43;12.10;;;5.00;;
51489;SDS011;57752;53.574;9.736;2023-05-10T00:15:43;11.35;;;4.70;;
51489;SDS011;57752;53.574;9.736;2023-05-10T00:20:43;12.13;;;4.72;;
51489;SDS011;57752;53.574;9.736;2023-05-10T00:25:45;15.93;;;5.22;;
51489;SDS011;57752;53.574;9.736;2023-05-10T00:30:46;12.80;;;4.75;;
51489;SDS011;57752;53.574;9.736;2023-05-10T00:35:46;14.13;;;4.75;;
51489;SDS011;57752;53.574;9.736;2023-05-10T00:40:46;13.38;;;4.80;;
51489;SDS011;57752;53.574;9.736;2023-05-10T00:45:46;13.65;;;4.88;;
51489;SDS011;57752;53.574;9.736;2023-05-10T00:50:47;11.57;;;5.05;;
51489;SDS011;57752;53.574;9.736;2023-05-10T00:55:47;16.15;;;5.93;;
51489;SDS011;57752;53.574;9.736;2023-05-10T01:00:48;12.95;;;4.90;;
51489;SDS011;57752;53.574;9.736;2023-05-10T01:05:48;13.10;;;5.50;;
51489;SDS011;57752;53.574;9.736;2023-05-10T01:10:48;11.45;;;5.45;;
51489;SDS011;57752;53.574;9.736;2023-05-10T01:15:49;12.43;;;5.25;;
51489;SDS011;57752;53.574;9.736;2023-05-10T01:21:01;14.35;;;5.22;;
51489;SDS011;57752;53.574;9.736;2023-05-10T01:26:14;14.18;;;5.45;;
51489;SDS011;57752;53.574;9.736;2023-05-10T01:36:32;13.88;;;6.03;;
51489;SDS011;57752;53.574;9.736;2023-05-10T01:41:43;13.48;;;5.50;;
51489;SDS011;57752;53.574;9.736;2023-05-10T01:46:48;12.73;;;5.90;;
51489;SDS011;57752;53.574;9.736;2023-05-10T01:51:53;11.40;;;5.15;;
51489;SDS011;57752;53.574;9.736;2023-05-10T01:56:55;11.32;;;5.30;;
51489;SDS011;57752;53.574;9.736;2023-05-10T02:01:57;14.80;;;6.50;;
51489;SDS011;57752;53.574;9.736;2023-05-10T02:06:58;13.60;;;5.72;;
51489;SDS011;57752;53.574;9.736;2023-05-10T02:11:59;13.95;;;5.85;;
51489;SDS011;57752;53.574;9.736;2023-05-10T02:16:59;17.00;;;6.25;;
51489;SDS011;57752;53.574;9.736;2023-05-10T02:22:01;14.68;;;6.15;;
51489;SDS011;57752;53.574;9.736;2023-05-10T02:27:02;13.05;;;5.63;;
51489;SDS011;57752;53.574;9.736;2023-05-10T02:32:03;13.95;;;6.20;;
51489;SDS011;57752;53.574;9.736;2023-05-10T02:37:03;14.80;;;5.47;;
51489;SDS011;57752;53.574;9.736;2023-05-10T02:42:04;13.95;;;6.30;;
51489;SDS011;57752;53.574;9.736;2023-05-10T02:47:05;13.27;;;5.82;;
51489;SDS011;57752;53.574;9.736;2023-05-10T02:52:05;13.35;;;6.68;;
51489;SDS011;57752;53.574;9.736;2023-05-10T02:57:07;12.95;;;6.20;;
51489;SDS011;57752;53.574;9.736;2023-05-10T03:02:09;13.35;;;5.68;;
51489;SDS011;57752;53.574;9.736;2023-05-10T03:07:10;12.82;;;6.18;;
51489;SDS011;57752;53.574;9.736;2023-05-10T03:17:30;14.13;;;6.00;;
51489;SDS011;57752;53.574;9.736;2023-05-10T03:22:31;12.88;;;6.05;;
51489;SDS011;57752;53.574;9.736;2023-05-10T03:27:32;15.15;;;5.90;;
51489;SDS011;57752;53.574;9.736;2023-05-10T03:32:32;15.05;;;6.32;;
51489;SDS011;57752;53.574;9.736;2023-05-10T03:37:34;16.52;;;6.85;;
51489;SDS011;57752;53.574;9.736;2023-05-10T03:42:34;14.07;;;6.25;;
51489;SDS011;57752;53.574;9.736;2023-05-10T03:47:34;15.95;;;6.30;;
51489;SDS011;57752;53.574;9.736;2023-05-10T03:52:35;14.20;;;6.32;;
51489;SDS011;57752;53.574;9.736;2023-05-10T03:57:35;15.65;;;6.85;;
51489;SDS011;57752;53.574;9.736;2023-05-10T04:02:35;14.68;;;6.32;;
51489;SDS011;57752;53.574;9.736;2023-05-10T04:07:35;15.07;;;6.50;;
51489;SDS011;57752;53.574;9.736;2023-05-10T04:12:35;13.35;;;6.05;;
51489;SDS011;57752;53.574;9.736;2023-05-10T04:17:36;14.70;;;6.15;;
51489;SDS011;57752;53.574;9.736;2023-05-10T04:22:36;14.38;;;5.47;;
51489;SDS011;57752;53.574;9.736;2023-05-10T04:27:36;14.25;;;6.13;;
51489;SDS011;57752;53.574;9.736;2023-05-10T04:32:36;13.75;;;6.47;;
51489;SDS011;57752;53.574;9.736;2023-05-10T04:37:37;15.30;;;6.65;;
51489;SDS011;57752;53.574;9.736;2023-05-10T04:42:39;15.00;;;6.93;;
51489;SDS011;57752;53.574;9.736;2023-05-10T04:47:39;16.20;;;7.03;;
51489;SDS011;57752;53.574;9.736;2023-05-10T04:52:39;15.52;;;6.28;;
51489;SDS011;57752;53.574;9.736;2023-05-10T04:57:39;13.93;;;6.47;;
51489;SDS011;57752;53.574;9.736;2023-05-10T05:02:43;12.80;;;6.33;;
51489;SDS011;57752;53.574;9.736;2023-05-10T05:07:45;13.82;;;6.85;;
51489;SDS011;57752;53.574;9.736;2023-05-10T05:12:45;14.13;;;6.47;;
51489;SDS011;57752;53.574;9.736;2023-05-10T05:17:45;16.60;;;6.40;;
51489;SDS011;57752;53.574;9.736;2023-05-10T05:22:46;16.08;;;6.18;;
51489;SDS011;57752;53.574;9.736;2023-05-10T05:27:46;15.85;;;5.65;;
51489;SDS011;57752;53.574;9.736;2023-05-10T05:32:46;12.75;;;5.78;;
51489;SDS011;57752;53.574;9.736;2023-05-10T05:37:47;12.32;;;5.95;;
51489;SDS011;57752;53.574;9.736;2023-05-10T05:42:47;14.27;;;6.43;;
51489;SDS011;57752;53.574;9.736;2023-05-10T05:47:47;13.25;;;6.10;;
51489;SDS011;57752;53.574;9.736;2023-05-10T05:52:47;12.45;;;6.80;;
51489;SDS011;57752;53.574;9.736;2023-05-10T05:57:47;15.25;;;6.25;;
51489;SDS011;57752;53.574;9.736;2023-05-10T06:02:47;14.18;;;6.55;;
51489;SDS011;57752;53.574;9.736;2023-05-10T06:07:48;12.65;;;6.35;;
51489;SDS011;57752;53.574;9.736;2023-05-10T06:12:48;12.38;;;5.82;;
51489;SDS011;57752;53.574;9.736;2023-05-10T06:17:48;12.50;;;6.20;;
51489;SDS011;57752;53.574;9.736;2023-05-10T06:22:49;14.52;;;5.90;;
51489;SDS011;57752;53.574;9.736;2023-05-10T06:27:49;13.55;;;5.70;;
51489;SDS011;57752;53.574;9.736;2023-05-10T06:32:49;14.20;;;6.93;;
51489;SDS011;57752;53.574;9.736;2023-05-10T06:37:50;15.98;;;6.18;;
51489;SDS011;57752;53.574;9.736;2023-05-10T06:42:50;13.20;;;5.75;;
51489;SDS011;57752;53.574;9.736;2023-05-10T06:47:51;13.45;;;6.57;;
51489;SDS011;57752;53.574;9.736;2023-05-10T06:52:51;15.63;;;6.45;;
51489;SDS011;57752;53.574;9.736;2023-05-10T06:57:51;16.50;;;7.53;;
51489;SDS011;57752;53.574;9.736;2023-05-10T07:02:51;16.38;;;6.60;;
51489;SDS011;57752;53.574;9.736;2023-05-10T07:07:51;14.85;;;6.72;;
51489;SDS011;57752;53.574;9.736;2023-05-10T07:12:52;12.68;;;6.07;;
51489;SDS011;57752;53.574;9.736;2023-05-10T07:17:52;12.90;;;6.28;;
51489;SDS011;57752;53.574;9.736;2023-05-10T07:22:52;16.20;;;6.50;;
51489;SDS011;57752;53.574;9.736;2023-05-10T07:27:52;16.00;;;6.22;;
51489;SDS011;57752;53.574;9.736;2023-05-10T07:32:52;25.30;;;8.13;;
51489;SDS011;57752;53.574;9.736;2023-05-10T07:37:52;21.77;;;7.00;;
51489;SDS011;57752;53.574;9.736;2023-05-10T07:42:52;37.72;;;8.95;;
51489;SDS011;57752;53.574;9.736;2023-05-10T07:47:53;15.80;;;6.35;;
51489;SDS011;57752;53.574;9.736;2023-05-10T07:52:53;15.35;;;5.78;;
51489;SDS011;57752;53.574;9.736;2023-05-10T07:57:53;13.07;;;6.43;;
51489;SDS011;57752;53.574;9.736;2023-05-10T08:02:53;15.50;;;6.70;;
51489;SDS011;57752;53.574;9.736;2023-05-10T08:07:53;11.88;;;5.90;;
51489;SDS011;57752;53.574;9.736;2023-05-10T08:12:53;40.60;;;9.32;;
51489;SDS011;57752;53.574;9.736;2023-05-10T08:17:54;16.50;;;6.65;;
51489;SDS011;57752;53.574;9.736;2023-05-10T08:22:54;24.10;;;7.47;;
51489;SDS011;57752;53.574;9.736;2023-05-10T08:27:55;19.88;;;7.60;;
51489;SDS011;57752;53.574;9.736;2023-05-10T08:32:55;13.93;;;6.85;;
51489;SDS011;57752;53.574;9.736;2023-05-10T08:37:55;18.45;;;6.57;;
51489;SDS011;57752;53.574;9.736;2023-05-10T08:42:58;16.92;;;7.22;;
51489;SDS011;57752;53.574;9.736;2023-05-10T08:47:59;15.18;;;6.85;;
51489;SDS011;57752;53.574;9.736;2023-05-10T08:53:01;18.02;;;7.57;;
51489;SDS011;57752;53.574;9.736;2023-05-10T08:58:03;14.70;;;7.22;;
51489;SDS011;57752;53.574;9.736;2023-05-10T09:03:04;16.33;;;8.00;;
51489;SDS011;57752;53.574;9.736;2023-05-10T09:08:05;19.60;;;8.18;;
51489;SDS011;57752;53.574;9.736;2023-05-10T09:13:06;15.32;;;7.18;;
51489;SDS011;57752;53.574;9.736;2023-05-10T09:18:07;26.13;;;8.57;;
51489;SDS011;57752;53.574;9.736;2023-05-10T09:23:07;15.38;;;7.57;;
51489;SDS011;57752;53.574;9.736;2023-05-10T09:28:08;15.40;;;8.05;;
51489;SDS011;57752;53.574;9.736;2023-05-10T09:33:09;14.48;;;7.28;;
51489;SDS011;57752;53.574;9.736;2023-05-10T09:38:09;16.20;;;8.10;;
51489;SDS011;57752;53.574;9.736;2023-05-10T09:43:10;21.75;;;9.40;;
51489;SDS011;57752;53.574;9.736;2023-05-10T09:48:10;16.63;;;8.52;;
51489;SDS011;57752;53.574;9.736;2023-05-10T09:53:10;18.13;;;8.38;;
51489;SDS011;57752;53.574;9.736;2023-05-10T09:58:14;17.08;;;9.98;;
51489;SDS011;57752;53.574;9.736;2023-05-10T10:03:15;18.63;;;9.98;;
51489;SDS011;57752;53.574;9.736;2023-05-10T10:08:16;15.65;;;8.30;;
51489;SDS011;57752;53.574;9.736;2023-05-10T10:13:17;21.95;;;11.20;;
51489;SDS011;57752;53.574;9.736;2023-05-10T10:18:17;22.38;;;10.30;;
51489;SDS011;57752;53.574;9.736;2023-05-10T10:23:17;19.60;;;10.35;;
51489;SDS011;57752;53.574;9.736;2023-05-10T10:28:41;18.05;;;10.23;;
51489;SDS011;57752;53.574;9.736;2023-05-10T10:33:51;20.48;;;11.75;;
51489;SDS011;57752;53.574;9.736;2023-05-10T10:49:18;19.02;;;10.95;;
51489;SDS011;57752;53.574;9.736;2023-05-10T10:54:21;18.65;;;11.02;;
51489;SDS011;57752;53.574;9.736;2023-05-10T10:59:26;18.77;;;10.65;;
51489;SDS011;57752;53.574;9.736;2023-05-10T11:04:27;19.70;;;11.43;;
51489;SDS011;57752;53.574;9.736;2023-05-10T11:09:27;20.25;;;10.93;;
51489;SDS011;57752;53.574;9.736;2023-05-10T11:14:27;17.95;;;10.48;;
51489;SDS011;57752;53.574;9.736;2023-05-10T11:19:31;18.20;;;9.63;;
51489;SDS011;57752;53.574;9.736;2023-05-10T11:24:31;17.23;;;9.95;;
51489;SDS011;57752;53.574;9.736;2023-05-10T11:29:31;20.45;;;11.52;;
51489;SDS011;57752;53.574;9.736;2023-05-10T11:34:31;22.05;;;12.77;;
51489;SDS011;57752;53.574;9.736;2023-05-10T11:39:35;21.83;;;13.18;;
51489;SDS011;57752;53.574;9.736;2023-05-10T11:44:35;22.10;;;11.82;;
51489;SDS011;57752;53.574;9.736;2023-05-10T11:49:35;22.65;;;12.50;;
51489;SDS011;57752;53.574;9.736;2023-05-10T11:54:35;18.35;;;9.60;;
51489;SDS011;57752;53.574;9.736;2023-05-10T11:59:36;20.98;;;12.32;;
51489;SDS011;57752;53.574;9.736;2023-05-10T12:04:36;21.42;;;11.88;;
51489;SDS011;57752;53.574;9.736;2023-05-10T12:09:36;21.50;;;12.23;;
51489;SDS011;57752;53.574;9.736;2023-05-10T12:14:36;18.75;;;11.10;;
51489;SDS011;57752;53.574;9.736;2023-05-10T12:19:37;16.65;;;9.73;;
51489;SDS011;57752;53.574;9.736;2023-05-10T12:24:38;17.33;;;9.98;;
51489;SDS011;57752;53.574;9.736;2023-05-10T12:29:41;19.83;;;10.63;;
51489;SDS011;57752;53.574;9.736;2023-05-10T12:34:43;16.48;;;9.32;;
51489;SDS011;57752;53.574;9.736;2023-05-10T12:44:46;17.17;;;9.07;;
51489;SDS011;57752;53.574;9.736;2023-05-10T12:49:46;15.10;;;8.38;;
51489;SDS011;57752;53.574;9.736;2023-05-10T12:54:46;17.63;;;9.50;;
51489;SDS011;57752;53.574;9.736;2023-05-10T12:59:47;14.45;;;7.78;;
51489;SDS011;57752;53.574;9.736;2023-05-10T13:04:47;14.65;;;8.40;;
51489;SDS011;57752;53.574;9.736;2023-05-10T13:09:47;15.50;;;8.25;;
51489;SDS011;57752;53.574;9.736;2023-05-10T13:14:47;14.90;;;8.60;;
51489;SDS011;57752;53.574;9.736;2023-05-10T13:19:48;14.02;;;8.02;;
51489;SDS011;57752;53.574;9.736;2023-05-10T13:24:48;17.95;;;8.85;;
51489;SDS011;57752;53.574;9.736;2023-05-10T13:29:48;18.23;;;8.52;;
51489;SDS011;57752;53.574;9.736;2023-05-10T13:34:48;15.35;;;8.50;;
51489;SDS011;57752;53.574;9.736;2023-05-10T13:39:48;14.85;;;8.07;;
51489;SDS011;57752;53.574;9.736;2023-05-10T13:44:49;17.45;;;8.95;;
51489;SDS011;57752;53.574;9.736;2023-05-10T13:49:49;15.25;;;8.95;;
51489;SDS011;57752;53.574;9.736;2023-05-10T13:54:49;16.05;;;8.85;;
51489;SDS011;57752;53.574;9.736;2023-05-10T13:59:49;15.02;;;7.97;;
51489;SDS011;57752;53.574;9.736;2023-05-10T14:04:50;13.25;;;7.63;;
51489;SDS011;57752;53.574;9.736;2023-05-10T14:09:50;15.75;;;9.20;;
51489;SDS011;57752;53.574;9.736;2023-05-10T14:14:50;17.33;;;9.75;;
51489;SDS011;57752;53.574;9.736;2023-05-10T14:19:50;15.32;;;9.55;;
51489;SDS011;57752;53.574;9.736;2023-05-10T14:24:50;14.93;;;8.40;;
51489;SDS011;57752;53.574;9.736;2023-05-10T14:29:50;16.50;;;9.30;;
51489;SDS011;57752;53.574;9.736;2023-05-10T14:34:51;16.70;;;9.82;;
51489;SDS011;57752;53.574;9.736;2023-05-10T14:39:51;14.38;;;7.47;;
51489;SDS011;57752;53.574;9.736;2023-05-10T14:44:52;15.38;;;8.85;;
51489;SDS011;57752;53.574;9.736;2023-05-10T14:49:52;13.18;;;7.20;;
51489;SDS011;57752;53.574;9.736;2023-05-10T14:54:52;15.13;;;8.05;;
51489;SDS011;57752;53.574;9.736;2023-05-10T14:59:52;15.32;;;8.82;;
51489;SDS011;57752;53.574;9.736;2023-05-10T15:04:52;14.23;;;8.38;;
51489;SDS011;57752;53.574;9.736;2023-05-10T15:09:52;14.95;;;8.85;;
51489;SDS011;57752;53.574;9.736;2023-05-10T15:14:54;12.13;;;6.70;;
51489;SDS011;57752;53.574;9.736;2023-05-10T15:19:54;14.93;;;7.60;;
51489;SDS011;57752;53.574;9.736;2023-05-10T15:24:54;14.02;;;7.85;;
51489;SDS011;57752;53.574;9.736;2023-05-10T15:29:54;15.13;;;8.37;;
51489;SDS011;57752;53.574;9.736;2023-05-10T15:34:55;17.60;;;8.80;;
51489;SDS011;57752;53.574;9.736;2023-05-10T15:39:55;19.20;;;9.53;;
51489;SDS011;57752;53.574;9.736;2023-05-10T15:45:02;19.33;;;10.20;;
51489;SDS011;57752;53.574;9.736;2023-05-10T15:50:02;19.80;;;8.77;;
51489;SDS011;57752;53.574;9.736;2023-05-10T15:55:03;14.75;;;7.88;;
51489;SDS011;57752;53.574;9.736;2023-05-10T16:00:04;12.75;;;5.93;;
51489;SDS011;57752;53.574;9.736;2023-05-10T16:05:04;13.82;;;6.50;;
51489;SDS011;57752;53.574;9.736;2023-05-10T16:10:05;15.32;;;8.40;;
51489;SDS011;57752;53.574;9.736;2023-05-10T16:15:07;13.88;;;6.55;;
51489;SDS011;57752;53.574;9.736;2023-05-10T16:20:07;14.23;;;6.40;;
51489;SDS011;57752;53.574;9.736;2023-05-10T16:25:08;14.57;;;7.80;;
51489;SDS011;57752;53.574;9.736;2023-05-10T16:30:08;15.57;;;7.80;;
51489;SDS011;57752;53.574;9.736;2023-05-10T16:35:08;13.77;;;7.23;;
51489;SDS011;57752;53.574;9.736;2023-05-10T16:40:09;15.05;;;7.18;;
51489;SDS011;57752;53.574;9.736;2023-05-10T16:45:09;16.03;;;9.20;;
51489;SDS011;57752;53.574;9.736;2023-05-10T16:50:10;13.27;;;5.85;;
51489;SDS011;57752;53.574;9.736;2023-05-10T16:55:10;14.77;;;5.65;;
51489;SDS011;57752;53.574;9.736;2023-05-10T17:00:10;13.15;;;5.65;;
51489;SDS011;57752;53.574;9.736;2023-05-10T17:05:11;13.40;;;5.70;;
51489;SDS011;57752;53.574;9.736;2023-05-10T17:10:11;12.93;;;6.55;;
51489;SDS011;57752;53.574;9.736;2023-05-10T17:15:11;23.95;;;11.77;;
51489;SDS011;57752;53.574;9.736;2023-05-10T17:20:11;37.13;;;22.48;;
51489;SDS011;57752;53.574;9.736;2023-05-10T17:25:12;11.80;;;6.13;;
51489;SDS011;57752;53.574;9.736;2023-05-10T17:30:13;12.35;;;5.82;;
51489;SDS011;57752;53.574;9.736;2023-05-10T17:35:14;14.93;;;5.55;;
51489;SDS011;57752;53.574;9.736;2023-05-10T17:40:14;13.35;;;7.07;;
51489;SDS011;57752;53.574;9.736;2023-05-10T17:45:15;13.10;;;7.03;;
51489;SDS011;57752;53.574;9.736;2023-05-10T17:50:15;15.88;;;9.30;;
51489;SDS011;57752;53.574;9.736;2023-05-10T17:55:16;17.20;;;8.75;;
51489;SDS011;57752;53.574;9.736;2023-05-10T18:00:16;16.77;;;7.55;;
51489;SDS011;57752;53.574;9.736;2023-05-10T18:05:16;12.43;;;6.65;;
51489;SDS011;57752;53.574;9.736;2023-05-10T18:10:16;18.90;;;11.82;;
51489;SDS011;57752;53.574;9.736;2023-05-10T18:15:16;12.48;;;6.05;;
51489;SDS011;57752;53.574;9.736;2023-05-10T18:20:17;14.63;;;8.65;;
51489;SDS011;57752;53.574;9.736;2023-05-10T18:25:17;25.27;;;20.83;;
51489;SDS011;57752;53.574;9.736;2023-05-10T18:30:17;10.80;;;4.85;;
51489;SDS011;57752;53.574;9.736;2023-05-10T18:35:17;10.93;;;5.30;;
51489;SDS011;57752;53.574;9.736;2023-05-10T18:40:18;10.55;;;4.88;;
51489;SDS011;57752;53.574;9.736;2023-05-10T18:45:18;10.25;;;4.60;;
51489;SDS011;57752;53.574;9.736;2023-05-10T18:50:18;11.00;;;5.38;;
51489;SDS011;57752;53.574;9.736;2023-05-10T18:55:19;12.27;;;6.10;;
51489;SDS011;57752;53.574;9.736;2023-05-10T19:00:19;11.95;;;4.82;;
51489;SDS011;57752;53.574;9.736;2023-05-10T19:05:19;10.20;;;4.45;;
51489;SDS011;57752;53.574;9.736;2023-05-10T19:10:19;11.18;;;5.30;;
51489;SDS011;57752;53.574;9.736;2023-05-10T19:15:19;10.05;;;4.18;;
51489;SDS011;57752;53.574;9.736;2023-05-10T19:20:20;10.70;;;4.43;;
51489;SDS011;57752;53.574;9.736;2023-05-10T19:25:20;10.70;;;4.95;;
51489;SDS011;57752;53.574;9.736;2023-05-10T19:30:20;9.68;;;4.43;;
51489;SDS011;57752;53.574;9.736;2023-05-10T19:35:20;10.18;;;4.63;;
51489;SDS011;57752;53.574;9.736;2023-05-10T19:40:20;9.15;;;3.53;;
51489;SDS011;57752;53.574;9.736;2023-05-10T19:45:21;10.60;;;4.68;;
51489;SDS011;57752;53.574;9.736;2023-05-10T19:50:21;11.98;;;6.10;;
51489;SDS011;57752;53.574;9.736;2023-05-10T19:55:25;12.10;;;5.43;;
51489;SDS011;57752;53.574;9.736;2023-05-10T20:00:26;15.00;;;7.00;;
51489;SDS011;57752;53.574;9.736;2023-05-10T20:05:27;15.30;;;8.23;;
51489;SDS011;57752;53.574;9.736;2023-05-10T20:10:27;12.07;;;5.97;;
51489;SDS011;57752;53.574;9.736;2023-05-10T20:15:28;14.85;;;8.68;;
51489;SDS011;57752;53.574;9.736;2023-05-10T20:20:28;20.35;;;11.95;;
51489;SDS011;57752;53.574;9.736;2023-05-10T20:25:28;19.17;;;11.18;;
51489;SDS011;57752;53.574;9.736;2023-05-10T20:30:28;22.52;;;11.88;;
51489;SDS011;57752;53.574;9.736;2023-05-10T20:35:29;18.85;;;9.43;;
51489;SDS011;57752;53.574;9.736;2023-05-10T20:40:29;18.90;;;10.67;;
51489;SDS011;57752;53.574;9.736;2023-05-10T20:45:29;24.98;;;12.65;;
51489;SDS011;57752;53.574;9.736;2023-05-10T20:50:29;18.67;;;8.45;;
51489;SDS011;57752;53.574;9.736;2023-05-10T20:55:29;21.35;;;11.52;;
51489;SDS011;57752;53.574;9.736;2023-05-10T21:00:30;23.45;;;10.73;;
51489;SDS011;57752;53.574;9.736;2023-05-10T21:05:30;25.02;;;12.98;;
51489;SDS011;57752;53.574;9.736;2023-05-10T21:10:30;21.52;;;12.15;;
51489;SDS011;57752;53.574;9.736;2023-05-10T21:15:30;26.75;;;13.18;;
51489;SDS011;57752;53.574;9.736;2023-05-10T21:20:30;26.13;;;13.13;;
51489;SDS011;57752;53.574;9.736;2023-05-10T21:25:30;21.55;;;10.60;;
51489;SDS011;57752;53.574;9.736;2023-05-10T21:30:31;25.90;;;13.32;;
51489;SDS011;57752;53.574;9.736;2023-05-10T21:35:31;24.73;;;12.23;;
51489;SDS011;57752;53.574;9.736;2023-05-10T21:40:31;26.85;;;12.77;;
51489;SDS011;57752;53.574;9.736;2023-05-10T21:45:31;25.80;;;13.10;;
51489;SDS011;57752;53.574;9.736;2023-05-10T21:50:32;39.70;;;20.65;;
51489;SDS011;57752;53.574;9.736;2023-05-10T21:55:32;43.55;;;26.17;;
51489;SDS011;57752;53.574;9.736;2023-05-10T22:00:33;31.25;;;16.15;;
51489;SDS011;57752;53.574;9.736;2023-05-10T22:05:33;31.88;;;15.40;;
51489;SDS011;57752;53.574;9.736;2023-05-10T22:10:33;36.35;;;17.23;;
51489;SDS011;57752;53.574;9.736;2023-05-10T22:15:34;36.78;;;19.55;;
51489;SDS011;57752;53.574;9.736;2023-05-10T22:20:34;34.17;;;17.15;;
51489;SDS011;57752;53.574;9.736;2023-05-10T22:25:34;27.60;;;14.63;;
51489;SDS011;57752;53.574;9.736;2023-05-10T22:30:34;38.88;;;17.38;;
51489;SDS011;57752;53.574;9.736;2023-05-10T22:35:34;36.78;;;16.08;;
51489;SDS011;57752;53.574;9.736;2023-05-10T22:40:34;26.20;;;11.93;;
51489;SDS011;57752;53.574;9.736;2023-05-10T22:45:35;30.73;;;13.52;;
51489;SDS011;57752;53.574;9.736;2023-05-10T22:50:35;29.35;;;13.15;;
51489;SDS011;57752;53.574;9.736;2023-05-10T22:55:35;32.20;;;14.38;;
51489;SDS011;57752;53.574;9.736;2023-05-10T23:00:36;42.03;;;16.50;;
51489;SDS011;57752;53.574;9.736;2023-05-10T23:05:36;39.85;;;17.55;;
51489;SDS011;57752;53.574;9.736;2023-05-10T23:10:36;44.90;;;17.98;;
51489;SDS011;57752;53.574;9.736;2023-05-10T23:15:37;46.28;;;19.00;;
51489;SDS011;57752;53.574;9.736;2023-05-10T23:20:41;40.55;;;16.02;;
51489;SDS011;57752;53.574;9.736;2023-05-10T23:25:42;46.42;;;19.75;;
51489;SDS011;57752;53.574;9.736;2023-05-10T23:30:42;45.88;;;17.58;;
51489;SDS011;57752;53.574;9.736;2023-05-10T23:35:42;44.53;;;16.15;;
51489;SDS011;57752;53.574;9.736;2023-05-10T23:40:42;39.28;;;17.05;;
51489;SDS011;57752;53.574;9.736;2023-05-10T23:45:53;39.00;;;17.08;;
51489;SDS011;57752;53.574;9.736;2023-05-10T23:50:53;48.63;;;19.60;;
51489;SDS011;57752;53.574;9.736;2023-05-10T23:55:53;39.25;;;16.27;;
